Time;durP1;ratioP1;P1;durP2;ratioP2;P2;SDS_P1;SDS_P2;PMS_P1;PMS_P2;Temp;Humidity;BMP_temperature;BMP_pressure;BME280_temperature;BME280_humidity;BME280_pressure;Samples;Min_cycle;Max_cycle;Signal;HPM_P1;HPM_P2
2024/03/13 00:01:12;;;;;;;23.43;17.80;;;;;;;6.73;86.16;100572.38;5032485;28;20666;-77
2024/03/13 00:03:38;;;;;;;29.97;19.10;;;;;;;6.68;86.22;100569.78;5032685;28;20241;-79
2024/03/13 00:06:05;;;;;;;22.57;18.50;;;;;;;6.69;86.85;100560.25;5033261;28;20206;-79
2024/03/13 00:08:31;;;;;;;23.67;18.87;;;;;;;6.68;86.45;100555.94;5032819;28;20210;-79
2024/03/13 00:10:58;;;;;;;23.77;18.47;;;;;;;6.74;85.93;100556.81;5032341;28;20694;-77
2024/03/13 00:13:24;;;;;;;28.10;19.33;;;;;;;6.64;86.79;100564.56;5036960;28;20687;-77
2024/03/13 00:15:50;;;;;;;22.70;18.07;;;;;;;6.59;86.08;100562.00;5034936;28;20202;-78
2024/03/13 00:18:20;;;;;;;23.60;17.77;;;;;;;6.59;86.66;100554.22;5033042;28;20215;-78
2024/03/13 00:20:46;;;;;;;21.13;17.67;;;;;;;6.57;87.21;100550.75;5032383;28;20229;-78
2024/03/13 00:23:12;;;;;;;26.27;19.33;;;;;;;6.54;87.74;100541.25;5032616;28;20279;-79
2024/03/13 00:25:38;;;;;;;21.40;17.17;;;;;;;6.49;87.67;100532.59;5032493;28;20705;-78
2024/03/13 00:28:05;;;;;;;23.00;17.63;;;;;;;6.54;88.14;100509.25;5041516;28;20758;-78
2024/03/13 00:30:31;;;;;;;23.77;16.47;;;;;;;6.51;88.41;100506.69;5031914;28;20640;-79
2024/03/13 00:32:59;;;;;;;26.60;17.63;;;;;;;6.53;88.31;100502.38;5032562;28;20225;-78
2024/03/13 00:35:26;;;;;;;26.13;16.63;;;;;;;6.50;88.13;100502.34;5032297;28;20298;-78
2024/03/13 00:37:53;;;;;;;23.83;17.77;;;;;;;6.46;88.59;100500.63;5032149;28;20213;-77
2024/03/13 00:40:19;;;;;;;25.90;17.53;;;;;;;6.45;89.55;100483.38;5031952;28;20257;-78
2024/03/13 00:42:46;;;;;;;21.47;16.10;;;;;;;6.51;88.56;100488.53;5032174;28;20261;-76
2024/03/13 00:45:13;;;;;;;25.83;17.27;;;;;;;6.51;89.03;100478.16;5039378;28;20669;-77
2024/03/13 00:47:39;;;;;;;21.40;16.83;;;;;;;6.48;89.28;100473.84;5032339;28;20203;-77
2024/03/13 00:50:07;;;;;;;22.00;16.60;;;;;;;6.54;88.73;100479.03;5031924;28;20222;-78
2024/03/13 00:52:36;;;;;;;21.87;16.70;;;;;;;6.45;89.07;100478.19;5032421;28;20234;-78
2024/03/13 00:55:03;;;;;;;23.43;17.37;;;;;;;6.49;89.37;100475.56;5032121;28;20210;-78
2024/03/13 00:57:30;;;;;;;20.83;16.30;;;;;;;6.51;89.08;100475.56;5031799;28;20301;-78
2024/03/13 00:59:58;;;;;;;23.93;17.57;;;;;;;6.52;89.28;100482.47;5036457;28;20232;-79
2024/03/13 01:02:24;;;;;;;22.53;17.23;;;;;;;6.45;89.31;100473.84;5040284;28;20730;-78
2024/03/13 01:04:51;;;;;;;24.23;18.03;;;;;;;6.48;89.21;100473.84;5032208;28;20241;-78
2024/03/13 01:07:18;;;;;;;24.87;18.17;;;;;;;6.53;89.37;100468.66;5031703;28;20233;-78
2024/03/13 01:09:45;;;;;;;22.97;17.30;;;;;;;6.51;89.34;100473.84;5031508;28;20238;-79
2024/03/13 01:12:13;;;;;;;22.77;17.10;;;;;;;6.51;88.70;100475.56;5031631;28;20739;-79
2024/03/13 01:14:39;;;;;;;26.33;17.27;;;;;;;6.53;88.36;100479.03;5039903;28;20206;-78
2024/03/13 01:17:06;;;;;;;21.13;17.27;;;;;;;6.51;88.16;100485.94;5031674;28;20241;-78
2024/03/13 01:19:34;;;;;;;23.63;17.73;;;;;;;6.50;88.17;100484.19;5044644;28;20226;-79
2024/03/13 01:22:04;;;;;;;23.90;17.17;;;;;;;6.48;88.51;100484.22;5031882;28;20226;-78
2024/03/13 01:24:32;;;;;;;25.97;18.03;;;;;;;6.50;88.28;100491.97;5031425;28;20247;-77
2024/03/13 01:27:00;;;;;;;22.47;17.30;;;;;;;6.50;87.90;100484.19;5035038;28;20209;-78
2024/03/13 01:29:26;;;;;;;23.77;18.13;;;;;;;6.48;87.93;100485.94;5046630;28;20229;-78
2024/03/13 01:31:56;;;;;;;20.90;17.27;;;;;;;6.46;88.29;100490.25;5050450;28;20417;-78
2024/03/13 01:34:22;;;;;;;23.50;16.70;;;;;;;6.46;88.45;100478.19;5038008;28;20217;-79
2024/03/13 01:39:33;;;;;;;20.30;17.03;;;;;;;6.41;88.14;100487.69;5035536;28;20319;-78
2024/03/13 01:56:15;;;;;;;26.73;18.37;;;;;;;6.31;89.76;100429.78;5035121;28;20253;-77
2024/03/13 01:58:51;;;;;;;28.63;19.37;;;;;;;6.33;90.36;100425.47;5035335;28;20210;-78
2024/03/13 02:04:00;;;;;;;23.43;16.90;;;;;;;6.35;89.48;100403.00;5023985;28;20206;-77
2024/03/13 02:06:28;;;;;;;21.33;17.23;;;;;;;6.30;88.36;100422.00;5039057;28;20244;-79
2024/03/13 02:08:55;;;;;;;20.77;16.63;;;;;;;6.32;88.46;100431.53;5054510;28;20268;-78
2024/03/13 02:11:22;;;;;;;19.53;15.97;;;;;;;6.29;88.33;100441.91;5054520;28;20793;-78
2024/03/13 02:13:51;;;;;;;20.57;16.47;;;;;;;6.25;88.42;100447.94;5047082;28;20229;-78
2024/03/13 02:16:18;;;;;;;17.93;15.97;;;;;;;6.31;87.21;100454.84;5034340;28;20205;-78
2024/03/13 02:18:45;;;;;;;19.13;16.60;;;;;;;6.27;86.90;100471.28;5034520;28;20267;-78
2024/03/13 02:21:11;;;;;;;22.90;17.97;;;;;;;6.15;87.48;100474.75;5034206;28;20220;-77
2024/03/13 02:23:39;;;;;;;21.03;17.30;;;;;;;6.23;88.02;100467.81;5034690;28;20210;-78
2024/03/13 02:26:05;;;;;;;27.20;18.47;;;;;;;6.18;87.40;100471.28;5017155;28;20242;-77
2024/03/13 02:28:32;;;;;;;26.80;17.37;;;;;;;6.19;87.58;100471.28;5016772;28;20667;-76
2024/03/13 02:30:58;;;;;;;20.97;17.13;;;;;;;6.19;87.74;100480.78;5016302;28;20665;-78
2024/03/13 02:33:25;;;;;;;21.30;16.90;;;;;;;6.19;87.49;100486.84;5016787;28;20300;-78
2024/03/13 02:35:51;;;;;;;26.83;17.87;;;;;;;6.18;87.74;100482.50;5016300;28;20708;-77
2024/03/13 02:38:17;;;;;;;26.37;18.77;;;;;;;6.20;87.37;100485.94;5018569;28;20202;-80
2024/03/13 02:40:44;;;;;;;23.87;18.47;;;;;;;6.22;87.72;100481.63;5019002;28;20288;-78
2024/03/13 02:43:10;;;;;;;30.60;19.10;;;;;;;6.15;88.34;100473.00;5017345;28;20261;-76
2024/03/13 02:45:36;;;;;;;23.93;18.07;;;;;;;6.15;88.97;100447.09;5016263;28;20222;-77
2024/03/13 02:48:03;;;;;;;26.13;18.13;;;;;;;6.18;88.68;100437.59;5016468;28;20210;-77
2024/03/13 02:50:30;;;;;;;22.13;16.80;;;;;;;6.16;88.04;100442.75;5016457;28;20257;-77
2024/03/13 02:52:56;;;;;;;27.73;18.60;;;;;;;6.14;88.26;100450.56;5018439;28;20202;-79
2024/03/13 02:55:23;;;;;;;22.80;17.00;;;;;;;6.13;87.85;100443.63;5019508;28;20742;-80
2024/03/13 02:57:49;;;;;;;24.70;17.70;;;;;;;6.13;88.02;100446.22;5019190;28;20203;-80
2024/03/13 03:00:16;;;;;;;23.03;17.13;;;;;;;6.11;87.74;100440.19;5017166;28;20719;-77
2024/03/13 03:02:42;;;;;;;21.17;16.63;;;;;;;6.16;87.47;100447.94;5016063;28;20222;-78
2024/03/13 03:05:09;;;;;;;25.17;17.20;;;;;;;6.08;87.18;100455.72;5019420;28;20630;-78
2024/03/13 03:07:35;;;;;;;22.93;16.00;;;;;;;6.08;87.46;100460.91;5019253;28;20256;-79
2024/03/13 03:10:02;;;;;;;20.20;16.60;;;;;;;6.11;87.39;100462.66;5018295;28;20761;-80
2024/03/13 03:12:28;;;;;;;24.60;17.73;;;;;;;6.08;87.14;100465.22;5017960;28;20263;-79
2024/03/13 03:14:55;;;;;;;21.93;17.70;;;;;;;6.07;87.05;100466.13;5024115;28;20210;-81
2024/03/13 03:17:22;;;;;;;24.43;19.53;;;;;;;6.08;88.14;100468.69;5034490;28;20216;-80
2024/03/13 03:19:49;;;;;;;22.70;17.17;;;;;;;6.04;87.86;100453.13;5035500;28;20250;-79
2024/03/13 03:22:16;;;;;;;21.90;17.23;;;;;;;6.06;87.30;100461.78;5035099;28;20613;-80
2024/03/13 03:24:43;;;;;;;26.50;17.53;;;;;;;5.94;88.24;100453.09;5033788;28;20206;-80
2024/03/13 03:27:09;;;;;;;28.73;20.07;;;;;;;5.91;88.59;100442.75;5038863;28;20230;-82
2024/03/13 03:29:36;;;;;;;25.87;17.70;;;;;;;5.84;90.35;100416.84;5056463;28;20214;-81
2024/03/13 03:32:03;;;;;;;23.00;17.27;;;;;;;5.91;90.17;100400.44;5055904;28;20209;-80
2024/03/13 03:34:29;;;;;;;28.93;20.20;;;;;;;5.92;90.79;100384.88;5057350;28;20205;-80
2024/03/13 03:36:56;;;;;;;25.03;18.37;;;;;;;5.92;90.92;100373.66;5057547;28;20202;-81
2024/03/13 03:39:25;;;;;;;27.93;19.50;;;;;;;5.93;90.96;100368.50;5056720;28;20218;-81
2024/03/13 03:41:52;;;;;;;24.87;18.10;;;;;;;5.94;91.37;100370.19;5044239;28;20208;-77
2024/03/13 03:44:18;;;;;;;30.27;20.00;;;;;;;6.03;91.02;100361.59;5041659;28;20237;-82
2024/03/13 03:46:45;;;;;;;28.87;20.03;;;;;;;6.05;91.17;100369.38;5040789;28;20221;-81
2024/03/13 03:49:11;;;;;;;23.17;16.93;;;;;;;6.06;90.28;100371.94;5039682;28;20228;-81
2024/03/13 03:51:38;;;;;;;23.63;18.07;;;;;;;6.03;90.06;100371.09;5040919;28;20186;-81
2024/03/13 03:54:05;;;;;;;20.97;17.73;;;;;;;6.06;90.74;100378.84;5040785;28;20296;-80
2024/03/13 03:56:32;;;;;;;21.30;18.03;;;;;;;6.01;89.89;100378.88;5040188;28;20217;-81
2024/03/13 03:58:58;;;;;;;28.43;18.87;;;;;;;5.98;89.87;100381.47;5040060;28;20214;-79
2024/03/13 04:01:25;;;;;;;30.20;19.80;;;;;;;6.02;90.06;100380.59;5040345;28;20240;-80
2024/03/13 04:03:52;;;;;;;33.07;19.57;;;;;;;6.02;90.33;100385.78;5020551;28;20230;-78
2024/03/13 04:06:18;;;;;;;28.37;19.50;;;;;;;5.96;91.67;100370.22;5016159;28;20229;-78
2024/03/13 04:08:45;;;;;;;31.83;20.07;;;;;;;6.00;91.78;100366.78;5015755;28;20672;-77
2024/03/13 04:11:12;;;;;;;27.07;19.07;;;;;;;6.01;91.97;100346.94;5015122;28;20314;-78
2024/03/13 04:13:38;;;;;;;31.60;20.03;;;;;;;5.98;91.72;100350.38;5017177;28;20194;-78
2024/03/13 04:16:05;;;;;;;33.87;20.77;;;;;;;6.04;91.77;100342.59;5032056;28;20604;-78
2024/03/13 04:18:32;;;;;;;31.20;19.73;;;;;;;6.04;92.21;100344.31;5035068;28;20710;-77
2024/03/13 04:20:59;;;;;;;29.13;21.17;;;;;;;6.07;91.90;100339.13;5036778;28;20225;-80
2024/03/13 04:23:25;;;;;;;31.97;19.97;;;;;;;6.02;92.69;100343.47;5035801;28;20229;-78
2024/03/13 04:25:52;;;;;;;36.27;21.70;;;;;;;6.13;93.33;100328.75;5034189;28;20622;-78
2024/03/13 04:28:18;;;;;;;34.47;22.13;;;;;;;6.21;92.46;100321.81;5034615;28;20296;-78
2024/03/13 04:30:46;;;;;;;37.07;22.37;;;;;;;6.22;93.54;100320.09;5034424;28;20221;-78
2024/03/13 04:33:12;;;;;;;34.63;22.80;;;;;;;6.27;93.07;100324.38;5034875;28;20197;-77
2024/03/13 04:35:39;;;;;;;38.53;21.63;;;;;;;6.28;92.80;100335.63;5034533;28;20224;-79
2024/03/13 04:38:05;;;;;;;33.13;21.43;;;;;;;6.29;93.05;100325.25;5034881;28;20263;-79
2024/03/13 04:40:32;;;;;;;35.43;21.53;;;;;;;6.24;92.54;100334.75;5033872;28;20229;-78
2024/03/13 04:43:00;;;;;;;34.83;20.97;;;;;;;6.25;93.27;100331.31;5034459;28;20225;-77
2024/03/13 04:45:26;;;;;;;33.20;23.03;;;;;;;6.33;93.60;100331.28;5015455;28;20206;-78
2024/03/13 04:47:53;;;;;;;38.57;21.83;;;;;;;6.34;nan;100328.69;5014910;28;20237;-77
2024/03/13 04:50:19;;;;;;;32.50;22.00;;;;;;;6.33;93.42;100334.72;5014185;28;20303;-77
2024/03/13 04:52:46;;;;;;;33.90;22.73;;;;;;;6.33;93.08;100337.31;5014588;28;20202;-78
2024/03/13 04:55:12;;;;;;;34.90;21.37;;;;;;;6.43;92.70;100350.28;5014020;28;20213;-78
2024/03/13 04:57:40;;;;;;;38.00;21.87;;;;;;;6.38;92.52;100358.03;5014664;28;20209;-76
2024/03/13 05:00:07;;;;;;;37.07;22.73;;;;;;;6.42;93.12;100353.72;5014363;28;20292;-79
2024/03/13 05:02:33;;;;;;;35.50;22.47;;;;;;;6.35;92.25;100358.94;5014217;28;20272;-78
2024/03/13 05:05:00;;;;;;;34.63;20.53;;;;;;;6.17;92.98;100356.38;5013426;28;20202;-78
2024/03/13 05:07:26;;;;;;;33.90;20.93;;;;;;;6.24;93.94;100341.66;5014020;28;20256;-78
2024/03/13 05:09:53;;;;;;;41.30;21.97;;;;;;;6.16;94.25;100333.91;5013895;28;20672;-78
2024/03/13 05:12:20;;;;;;;35.83;21.13;;;;;;;6.27;94.58;100332.16;5015424;28;20202;-78
2024/03/13 05:14:46;;;;;;;36.63;21.63;;;;;;;6.19;95.39;100320.97;5016866;28;20620;-78
2024/03/13 05:17:15;;;;;;;29.97;20.40;;;;;;;6.33;96.08;100302.78;5031456;28;20700;-78
2024/03/13 05:19:42;;;;;;;31.23;20.23;;;;;;;6.42;95.23;100304.44;5034578;28;20704;-79
2024/03/13 05:22:09;;;;;;;34.83;22.17;;;;;;;6.46;94.43;100307.06;5034171;28;20549;-79
2024/03/13 05:24:35;;;;;;;31.37;20.43;;;;;;;6.52;93.88;100309.63;5034741;28;20213;-78
2024/03/13 05:27:02;;;;;;;30.50;19.83;;;;;;;6.58;93.70;100329.47;5034527;28;20733;-79
2024/03/13 05:29:28;;;;;;;30.07;18.93;;;;;;;6.51;92.98;100348.50;5034398;28;20226;-78
2024/03/13 05:31:55;;;;;;;27.47;19.73;;;;;;;6.49;91.97;100371.00;5035326;28;20220;-79
2024/03/13 05:34:22;;;;;;;26.13;18.97;;;;;;;6.53;92.23;100376.16;5034840;28;20201;-79
2024/03/13 05:36:48;;;;;;;27.93;18.90;;;;;;;6.56;92.57;100386.53;5035044;28;20228;-80
2024/03/13 05:39:15;;;;;;;26.37;18.83;;;;;;;6.64;92.03;100391.69;5035099;28;20271;-79
2024/03/13 05:41:45;;;;;;;27.33;18.53;;;;;;;6.68;91.62;100398.59;5035428;28;20213;-79
2024/03/13 05:44:12;;;;;;;28.40;18.80;;;;;;;6.52;91.88;100410.75;5026871;28;20663;-78
2024/03/13 05:46:39;;;;;;;25.30;18.00;;;;;;;6.42;93.87;100375.34;5015656;28;20237;-79
2024/03/13 05:49:05;;;;;;;24.70;17.70;;;;;;;6.57;93.59;100361.44;5015073;28;20226;-78
2024/03/13 05:51:34;;;;;;;22.33;18.03;;;;;;;6.67;93.87;100352.75;5015777;28;20689;-79
2024/03/13 05:54:02;;;;;;;25.33;17.47;;;;;;;6.75;92.60;100353.56;5015829;28;20217;-80
2024/03/13 05:56:28;;;;;;;25.20;18.40;;;;;;;6.74;91.99;100361.38;5015591;28;20217;-79
2024/03/13 05:58:55;;;;;;;29.93;18.97;;;;;;;6.75;92.00;100363.09;5014618;28;20206;-78
2024/03/13 06:01:26;;;;;;;23.70;18.63;;;;;;;6.78;91.92;100370.88;5015226;28;20217;-79
2024/03/13 06:03:53;;;;;;;37.17;20.43;;;;;;;6.82;90.95;100382.09;5016305;28;20320;-79
2024/03/13 06:06:20;;;;;;;23.13;17.80;;;;;;;6.85;91.15;100375.16;5015703;28;20207;-79
2024/03/13 06:08:47;;;;;;;25.13;18.60;;;;;;;6.79;91.26;100379.53;5016153;28;20210;-77
2024/03/13 06:11:14;;;;;;;27.97;18.80;;;;;;;6.80;91.25;100374.34;5016138;28;20210;-77
2024/03/13 06:13:41;;;;;;;23.97;17.80;;;;;;;6.86;91.80;100363.06;5020941;28;20198;-76
2024/03/13 06:16:08;;;;;;;22.30;16.97;;;;;;;6.73;91.97;100388.19;5033293;28;20209;-78
2024/03/13 06:18:35;;;;;;;23.20;17.93;;;;;;;6.79;91.86;100372.59;5037846;28;20215;-78
2024/03/13 06:21:03;;;;;;;22.33;16.70;;;;;;;6.95;91.88;100371.63;5037468;28;20343;-79
2024/03/13 06:23:29;;;;;;;20.57;17.13;;;;;;;6.95;91.12;100369.03;5037266;28;20312;-78
2024/03/13 06:25:57;;;;;;;24.27;16.33;;;;;;;7.03;91.27;100368.16;5037369;28;20629;-79
2024/03/13 06:31:08;;;;;;;20.37;15.90;;;;;;;7.11;91.43;100371.56;5039750;28;20236;-79
2024/03/13 06:33:34;;;;;;;21.77;16.50;;;;;;;7.11;90.80;100371.56;5037412;28;20687;-78
2024/03/13 06:36:01;;;;;;;19.93;14.53;;;;;;;7.13;90.28;100386.25;5037250;28;20213;-77
2024/03/13 06:38:27;;;;;;;24.13;16.97;;;;;;;7.11;90.33;100388.00;5037058;28;20215;-79
2024/03/13 06:40:54;;;;;;;16.60;14.70;;;;;;;7.14;89.95;100393.19;5036949;28;20261;-78
2024/03/13 06:43:20;;;;;;;15.53;13.90;;;;;;;7.09;90.28;100397.50;5035891;28;20229;-78
2024/03/13 06:45:47;;;;;;;18.60;15.23;;;;;;;7.17;90.65;100400.06;5017373;28;20224;-79
2024/03/13 06:48:15;;;;;;;16.37;13.60;;;;;;;7.10;90.51;100401.84;5017549;28;20213;-79
2024/03/13 06:50:41;;;;;;;14.80;13.10;;;;;;;7.24;90.13;100404.38;5017019;28;20226;-79
2024/03/13 06:53:08;;;;;;;15.43;13.07;;;;;;;7.21;90.45;100411.31;5017276;28;20893;-78
2024/03/13 06:55:35;;;;;;;15.00;13.03;;;;;;;7.20;89.32;100418.25;5017147;28;20585;-79
2024/03/13 06:58:01;;;;;;;16.40;12.97;;;;;;;7.42;89.45;100431.97;5016866;28;20202;-78
2024/03/13 07:00:28;;;;;;;17.33;12.30;;;;;;;7.36;89.38;100442.38;5016941;28;20327;-78
2024/03/13 07:02:55;;;;;;;15.93;14.37;;;;;;;7.29;89.47;100444.13;5018064;28;20210;-79
2024/03/13 07:05:22;;;;;;;14.40;12.90;;;;;;;7.29;89.29;100441.53;5017917;28;20297;-78
2024/03/13 07:07:49;;;;;;;14.80;12.27;;;;;;;7.38;89.60;100437.19;5017568;28;20284;-79
2024/03/13 07:10:15;;;;;;;13.13;11.73;;;;;;;7.42;88.77;100439.75;5016948;28;20261;-78
2024/03/13 07:12:42;;;;;;;14.03;12.13;;;;;;;7.42;88.93;100451.88;5017080;28;20206;-77
2024/03/13 07:15:10;;;;;;;13.23;11.83;;;;;;;7.50;89.08;100442.31;5020066;28;20678;-78
2024/03/13 07:17:36;;;;;;;13.80;12.40;;;;;;;7.52;88.96;100444.00;5036113;28;20215;-78
2024/03/13 07:20:04;;;;;;;13.40;12.00;;;;;;;7.60;89.33;100440.50;5036885;28;20222;-77
2024/03/13 07:22:30;;;;;;;12.80;11.50;;;;;;;7.50;89.39;100443.16;5036529;28;20655;-79
2024/03/13 07:24:58;;;;;;;12.83;11.53;;;;;;;7.58;89.46;100444.84;5036102;28;20308;-77
2024/03/13 07:27:25;;;;;;;12.07;10.87;;;;;;;7.65;89.68;100441.31;5036366;28;20648;-79
2024/03/13 07:29:51;;;;;;;13.17;11.87;;;;;;;7.83;89.04;100440.31;5037102;28;20226;-78
2024/03/13 07:32:17;;;;;;;12.70;11.40;;;;;;;7.85;88.27;100454.16;5037366;28;20249;-77
2024/03/13 07:34:44;;;;;;;12.27;10.97;;;;;;;7.92;87.85;100463.66;5036719;28;20894;-79
2024/03/13 07:37:11;;;;;;;13.10;11.50;;;;;;;8.00;88.07;100471.41;5037250;28;20209;-78
2024/03/13 07:39:38;;;;;;;11.70;10.50;;;;;;;8.02;87.67;100487.84;5036411;28;20230;-78
2024/03/13 07:42:06;;;;;;;11.90;10.00;;;;;;;7.97;87.08;100500.88;5037566;28;20241;-78
2024/03/13 07:44:33;;;;;;;11.83;10.37;;;;;;;8.06;87.10;100508.59;5033712;28;20264;-78
2024/03/13 07:46:59;;;;;;;11.87;10.57;;;;;;;8.12;87.46;100510.28;5017242;28;20751;-80
2024/03/13 07:49:26;;;;;;;10.40;9.40;;;;;;;8.11;85.51;100522.44;5016597;28;20226;-78
2024/03/13 07:51:58;;;;;;;10.50;9.40;;;;;;;8.16;85.97;100536.25;5015870;28;20207;-78
2024/03/13 07:54:24;;;;;;;11.03;9.90;;;;;;;8.23;85.78;100554.44;5017537;28;20611;-79
2024/03/13 07:56:52;;;;;;;11.70;10.60;;;;;;;8.17;86.77;100550.13;5017316;28;20253;-79
2024/03/13 07:59:18;;;;;;;10.30;9.30;;;;;;;8.28;86.20;100543.09;5016941;28;20232;-77
2024/03/13 08:01:45;;;;;;;10.57;9.47;;;;;;;8.21;85.71;100554.44;5016769;28;20211;-79
2024/03/13 08:04:12;;;;;;;11.23;10.13;;;;;;;8.41;86.17;100556.03;5016477;28;20236;-79
2024/03/13 08:06:39;;;;;;;11.00;9.90;;;;;;;8.44;86.02;100546.47;5015917;28;20215;-79
2024/03/13 08:09:05;;;;;;;10.57;9.50;;;;;;;8.47;85.61;100550.78;5015886;28;20219;-79
2024/03/13 08:11:33;;;;;;;10.80;9.70;;;;;;;8.58;84.46;100561.94;5017482;28;20210;-77
2024/03/13 08:14:01;;;;;;;11.07;9.60;;;;;;;8.78;83.89;100573.91;5020981;28;20206;-79
2024/03/13 08:16:27;;;;;;;10.43;9.33;;;;;;;8.84;84.02;100599.88;5019556;28;20206;-78
2024/03/13 08:18:54;;;;;;;10.10;9.20;;;;;;;8.90;84.27;100603.31;5016825;28;20294;-76
2024/03/13 08:21:20;;;;;;;10.20;9.00;;;;;;;8.89;84.34;100601.56;5016844;28;20602;-79
2024/03/13 08:23:47;;;;;;;10.60;9.50;;;;;;;9.00;84.63;100598.88;5017384;28;20231;-79
2024/03/13 08:26:16;;;;;;;9.90;9.00;;;;;;;8.94;83.79;100615.44;5017603;28;20244;-80
2024/03/13 08:28:42;;;;;;;10.57;9.03;;;;;;;8.97;83.86;100611.91;5018006;28;20256;-79
2024/03/13 08:31:09;;;;;;;8.33;7.53;;;;;;;8.97;83.34;100631.91;5017874;28;20235;-79
2024/03/13 08:33:35;;;;;;;9.23;8.40;;;;;;;9.17;83.40;100640.38;5026726;28;20226;-79
2024/03/13 08:36:02;;;;;;;8.77;7.87;;;;;;;9.11;82.68;100651.69;5023484;28;20639;-79
2024/03/13 08:38:29;;;;;;;8.87;8.07;;;;;;;9.18;82.88;100652.53;5016303;28;20692;-79
2024/03/13 08:40:55;;;;;;;8.57;7.67;;;;;;;9.18;83.00;100667.28;5016060;28;20222;-79
2024/03/13 08:43:23;;;;;;;9.57;8.77;;;;;;;9.30;82.81;100670.63;5019221;28;20210;-80
2024/03/13 08:45:50;;;;;;;8.57;7.77;;;;;;;9.37;83.13;100658.41;5028858;28;20665;-79
2024/03/13 08:48:16;;;;;;;8.37;7.47;;;;;;;9.48;83.39;100647.88;5029266;28;20314;-80
2024/03/13 08:50:43;;;;;;;8.50;7.70;;;;;;;9.62;82.69;100651.19;5029945;28;20291;-79
2024/03/13 08:53:14;;;;;;;7.10;6.43;;;;;;;9.57;81.58;100670.34;5025915;28;20674;-79
2024/03/13 08:55:40;;;;;;;8.13;7.33;;;;;;;9.88;84.60;100640.44;5031372;28;20197;-79
2024/03/13 08:58:07;;;;;;;8.90;8.10;;;;;;;9.99;81.44;100650.75;5025996;28;20234;-79
2024/03/13 09:00:33;;;;;;;8.23;7.43;;;;;;;10.16;82.62;100640.06;5023811;28;20345;-81
2024/03/13 09:03:01;;;;;;;8.73;7.93;;;;;;;10.18;80.70;100671.34;5016438;28;20275;-78
2024/03/13 09:05:29;;;;;;;8.80;8.00;;;;;;;9.98;79.47;100721.16;5017409;28;20246;-79
2024/03/13 09:07:56;;;;;;;8.37;7.40;;;;;;;10.18;80.51;100732.19;5018063;28;20237;-79
2024/03/13 09:10:22;;;;;;;8.03;7.33;;;;;;;10.22;79.46;100723.44;5017343;28;20239;-79
2024/03/13 09:12:50;;;;;;;8.47;7.67;;;;;;;10.17;79.89;100740.94;5018044;28;20214;-79
2024/03/13 09:15:16;;;;;;;8.20;7.23;;;;;;;10.28;79.73;100752.06;5017600;28;20205;-79
2024/03/13 09:17:43;;;;;;;8.67;7.87;;;;;;;10.28;80.36;100749.47;5020185;28;20665;-78
2024/03/13 09:20:13;;;;;;;9.23;8.37;;;;;;;10.34;79.24;100730.28;5025014;28;20262;-79
2024/03/13 09:22:40;;;;;;;8.60;7.80;;;;;;;10.62;80.32;100715.09;5025098;28;20199;-79
2024/03/13 09:25:11;;;;;;;8.83;8.00;;;;;;;10.61;77.85;100733.41;5020158;28;20218;-79
2024/03/13 09:27:38;;;;;;;8.63;7.83;;;;;;;10.55;77.84;100780.50;5018644;28;20673;-79
2024/03/13 09:30:06;;;;;;;9.23;8.43;;;;;;;10.71;78.27;100772.41;5017358;28;20242;-80
2024/03/13 09:32:33;;;;;;;8.30;7.50;;;;;;;10.64;78.99;100794.25;5019110;28;20592;-79
2024/03/13 09:34:59;;;;;;;8.37;7.53;;;;;;;10.50;78.23;100807.53;5017828;28;20686;-79
2024/03/13 09:37:26;;;;;;;9.30;8.47;;;;;;;10.83;79.00;100780.97;5017511;28;20262;-81
2024/03/13 09:39:53;;;;;;;9.30;8.40;;;;;;;10.99;78.05;100781.59;5017709;28;20225;-80
2024/03/13 09:42:21;;;;;;;9.40;8.50;;;;;;;11.06;77.40;100823.28;5017740;28;20195;-81
2024/03/13 09:44:48;;;;;;;7.73;7.10;;;;;;;10.99;76.72;100844.28;5023156;28;20237;-80
2024/03/13 09:47:14;;;;;;;8.00;7.00;;;;;;;11.00;76.14;100854.72;5019927;28;20207;-81
2024/03/13 09:49:41;;;;;;;8.50;7.70;;;;;;;10.96;76.18;100865.22;5021448;28;20281;-80
2024/03/13 09:52:09;;;;;;;9.43;8.57;;;;;;;10.59;76.80;100890.06;5021900;28;20565;-81
2024/03/13 09:54:35;;;;;;;8.87;7.97;;;;;;;10.82;77.07;100858.44;5021795;28;20205;-80
2024/03/13 09:57:02;;;;;;;8.53;7.73;;;;;;;10.98;77.24;100847.78;5021517;28;20231;-81
2024/03/13 09:59:29;;;;;;;9.70;8.33;;;;;;;10.97;77.52;100852.13;5021238;28;20222;-80
2024/03/13 10:01:55;;;;;;;8.90;8.10;;;;;;;10.92;77.50;100847.00;5022169;28;20207;-80
2024/03/13 10:04:24;;;;;;;8.73;7.93;;;;;;;10.82;76.85;100849.72;5021227;28;20254;-79
2024/03/13 10:06:53;;;;;;;8.67;7.90;;;;;;;10.93;77.47;100842.63;5021757;28;20691;-80
2024/03/13 10:09:23;;;;;;;9.03;8.23;;;;;;;10.70;77.19;100864.69;5021591;28;20743;-80
2024/03/13 10:11:49;;;;;;;9.03;8.13;;;;;;;10.89;77.92;100833.97;5021329;28;20278;-80
2024/03/13 10:14:16;;;;;;;9.13;8.37;;;;;;;11.07;77.30;100830.22;5036786;28;20210;-79
2024/03/13 10:16:43;;;;;;;9.00;8.20;;;;;;;10.83;78.22;100841.88;5025523;28;20210;-81
2024/03/13 10:19:11;;;;;;;9.90;9.00;;;;;;;10.88;77.61;100840.09;5020632;28;20232;-80
2024/03/13 10:21:37;;;;;;;10.37;9.37;;;;;;;11.04;78.12;100824.16;5021804;28;20218;-81
2024/03/13 10:24:04;;;;;;;10.10;9.20;;;;;;;11.05;78.03;100821.53;5020993;28;20229;-81
2024/03/13 10:26:31;;;;;;;9.17;8.37;;;;;;;11.09;77.16;100832.81;5031651;28;20211;-79
2024/03/13 10:28:57;;;;;;;9.87;8.20;;;;;;;10.92;77.21;100848.72;5024393;28;20207;-79
2024/03/13 10:31:24;;;;;;;10.00;9.10;;;;;;;10.86;78.49;100830.53;5020776;28;20700;-80
2024/03/13 10:33:54;;;;;;;9.87;8.87;;;;;;;11.08;79.19;100792.78;5021361;28;20649;-80
2024/03/13 10:36:21;;;;;;;10.50;9.17;;;;;;;10.93;78.88;100800.84;5021597;28;20622;-81
2024/03/13 10:38:48;;;;;;;10.03;8.93;;;;;;;11.12;77.77;100822.34;5020944;28;20230;-80
2024/03/13 10:41:15;;;;;;;9.87;8.87;;;;;;;11.31;77.49;100815.91;5021027;28;20207;-81
2024/03/13 10:43:42;;;;;;;9.60;8.73;;;;;;;11.33;77.64;100827.19;5026171;28;20215;-79
2024/03/13 10:46:10;;;;;;;8.90;8.13;;;;;;;11.05;77.23;100846.81;5021029;28;20721;-81
2024/03/13 10:48:38;;;;;;;8.83;8.03;;;;;;;10.94;77.67;100826.06;5020690;28;20207;-80
2024/03/13 10:51:05;;;;;;;9.33;8.53;;;;;;;11.01;78.50;100813.78;5020106;28;20276;-81
2024/03/13 10:53:33;;;;;;;9.37;8.47;;;;;;;11.10;79.17;100800.59;5020334;28;20208;-80
2024/03/13 10:55:59;;;;;;;8.93;8.13;;;;;;;11.04;78.13;100796.31;5021265;28;20207;-81
2024/03/13 10:58:25;;;;;;;8.90;8.10;;;;;;;10.97;79.22;100786.00;5020758;28;20257;-81
2024/03/13 11:00:52;;;;;;;9.27;8.43;;;;;;;11.00;78.73;100791.16;5019716;28;20223;-80
2024/03/13 11:03:19;;;;;;;9.97;9.07;;;;;;;10.99;79.33;100769.41;5020191;28;20208;-81
2024/03/13 11:05:47;;;;;;;8.90;8.07;;;;;;;11.11;80.62;100752.66;5019024;28;20225;-81
2024/03/13 11:08:14;;;;;;;8.27;7.57;;;;;;;10.82;79.88;100751.38;5020680;28;20207;-80
2024/03/13 11:10:40;;;;;;;8.33;7.63;;;;;;;10.98;80.20;100738.94;4336132;28;10000848;-80
2024/03/13 11:13:09;;;;;;;9.20;8.40;;;;;;;10.98;80.41;100730.22;5037215;28;20212;-80
2024/03/13 11:15:35;;;;;;;8.37;7.57;;;;;;;11.10;79.91;100733.53;5020436;28;20237;-80
2024/03/13 11:18:02;;;;;;;8.50;7.70;;;;;;;11.26;80.02;100721.06;5017286;28;20237;-80
2024/03/13 11:20:29;;;;;;;7.63;7.00;;;;;;;11.44;79.88;100713.78;5016881;28;20321;-81
2024/03/13 11:22:58;;;;;;;8.47;7.67;;;;;;;11.58;79.57;100732.69;5018302;28;20205;-80
2024/03/13 11:25:24;;;;;;;7.77;7.17;;;;;;;11.83;79.37;100738.34;5017135;28;20264;-82
2024/03/13 11:27:52;;;;;;;7.47;6.87;;;;;;;11.87;78.60;100757.44;5016224;28;20234;-80
2024/03/13 11:30:19;;;;;;;8.23;6.93;;;;;;;11.89;78.69;100761.78;5016146;28;20234;-80
2024/03/13 11:32:46;;;;;;;7.77;7.07;;;;;;;11.76;78.07;100791.63;5016880;28;20211;-80
2024/03/13 11:35:14;;;;;;;7.50;6.90;;;;;;;12.09;78.18;100773.59;5016496;28;20632;-80
2024/03/13 11:37:40;;;;;;;7.27;6.60;;;;;;;12.36;77.43;100787.03;5016505;28;20211;-80
2024/03/13 11:40:08;;;;;;;7.10;6.50;;;;;;;12.28;76.35;100823.84;5016076;28;20298;-80